Time;durP1;ratioP1;P1;durP2;ratioP2;P2;SDS_P1;SDS_P2;PMS_P1;PMS_P2;Temp;Humidity;BMP_temperature;BMP_pressure;BME280_temperature;BME280_humidity;BME280_pressure;Samples;Min_cycle;Max_cycle;Signal;HPM_P1;HPM_P2
2021/11/13 00:01:30;;;;;;;41.40;26.33;;;5.60;99.90;;;;;;5045960;28;20240;-71
2021/11/13 00:03:57;;;;;;;39.00;27.13;;;5.70;99.90;;;;;;5047333;28;20319;-72
2021/11/13 00:06:24;;;;;;;40.53;26.37;;;5.70;99.90;;;;;;5046929;27;20662;-71
2021/11/13 00:08:52;;;;;;;41.43;27.07;;;5.60;99.90;;;;;;5107878;27;20209;-71
2021/11/13 00:11:19;;;;;;;37.73;25.67;;;5.60;99.90;;;;;;5131480;27;20672;-73
2021/11/13 00:13:51;;;;;;;40.67;26.30;;;5.60;99.90;;;;;;5131307;27;20198;-74
2021/11/13 00:16:18;;;;;;;40.17;25.67;;;5.60;99.90;;;;;;5131651;27;20206;-74
2021/11/13 00:18:44;;;;;;;42.23;28.03;;;5.50;99.90;;;;;;5131554;27;20237;-74
2021/11/13 00:21:11;;;;;;;38.73;26.87;;;5.60;99.90;;;;;;5124092;27;20209;-74
2021/11/13 00:23:38;;;;;;;38.83;25.63;;;5.60;99.90;;;;;;5026695;28;20667;-74
2021/11/13 00:26:06;;;;;;;36.97;26.07;;;5.60;99.90;;;;;;5027493;28;20253;-74
2021/11/13 00:28:32;;;;;;;38.00;25.63;;;5.60;99.90;;;;;;5027076;28;20270;-74
2021/11/13 00:30:59;;;;;;;39.47;26.20;;;5.60;99.90;;;;;;5026816;28;20236;-74
2021/11/13 00:33:26;;;;;;;40.63;27.17;;;5.60;99.90;;;;;;5026824;28;20288;-74
2021/11/13 00:35:52;;;;;;;42.17;26.63;;;5.50;99.90;;;;;;5026326;28;20300;-74
2021/11/13 00:38:20;;;;;;;39.20;25.83;;;5.60;99.90;;;;;;5037412;28;20216;-74
2021/11/13 00:40:47;;;;;;;40.63;25.57;;;5.50;99.90;;;;;;5046910;27;20267;-73
2021/11/13 00:43:15;;;;;;;39.50;25.90;;;5.50;99.90;;;;;;5047186;28;20518;-71
2021/11/13 00:45:41;;;;;;;41.67;26.17;;;5.40;99.90;;;;;;5046788;28;20280;-71
2021/11/13 00:48:08;;;;;;;38.07;26.90;;;5.40;99.90;;;;;;5047131;27;20733;-71
2021/11/13 00:50:35;;;;;;;40.90;26.07;;;5.40;99.90;;;;;;5046221;27;20231;-71
2021/11/13 00:53:02;;;;;;;39.20;26.17;;;5.40;99.90;;;;;;5039610;28;20289;-71
2021/11/13 00:55:29;;;;;;;39.23;27.23;;;5.40;99.90;;;;;;5027165;28;20551;-71
2021/11/13 00:57:57;;;;;;;42.97;26.73;;;5.40;99.90;;;;;;5026827;28;20270;-73
2021/11/13 01:00:25;;;;;;;43.73;26.40;;;5.40;99.90;;;;;;5026546;28;20286;-73
2021/11/13 01:02:52;;;;;;;40.13;26.23;;;5.40;99.90;;;;;;5026837;28;20278;-72
2021/11/13 01:05:19;;;;;;;40.03;26.30;;;5.40;99.90;;;;;;5026623;28;20663;-72
2021/11/13 01:07:47;;;;;;;39.00;25.93;;;5.40;99.90;;;;;;5026727;28;20212;-71
2021/11/13 01:10:16;;;;;;;40.87;26.20;;;5.40;99.90;;;;;;5026486;28;20204;-72
2021/11/13 01:12:44;;;;;;;39.73;24.47;;;5.40;99.90;;;;;;5026199;28;20802;-72
2021/11/13 01:15:12;;;;;;;40.63;26.73;;;5.30;99.90;;;;;;5026312;28;20209;-72
2021/11/13 01:17:41;;;;;;;39.57;25.63;;;5.30;99.90;;;;;;5026706;28;20212;-71
2021/11/13 01:20:11;;;;;;;39.67;27.20;;;5.30;99.90;;;;;;5026619;28;20272;-72
2021/11/13 01:22:38;;;;;;;41.23;27.47;;;5.30;99.90;;;;;;5026203;28;20214;-72
2021/11/13 01:25:07;;;;;;;40.00;25.87;;;5.30;99.90;;;;;;5026479;28;20232;-72
2021/11/13 01:27:34;;;;;;;43.20;28.03;;;5.30;99.90;;;;;;5026418;28;20229;-72
2021/11/13 01:30:40;;;;;;;37.10;25.43;;;5.30;99.90;;;;;;5026382;28;20213;-71
2021/11/13 01:33:08;;;;;;;39.77;26.27;;;5.20;99.90;;;;;;5036446;28;20207;-72
2021/11/13 01:35:34;;;;;;;38.70;25.93;;;5.30;99.90;;;;;;5026340;28;20258;-72
2021/11/13 01:38:01;;;;;;;37.63;25.20;;;5.30;99.90;;;;;;5026348;28;20266;-72
2021/11/13 01:40:28;;;;;;;38.33;26.07;;;5.20;99.90;;;;;;5026033;28;20205;-72
2021/11/13 01:42:55;;;;;;;41.43;25.63;;;5.20;99.90;;;;;;5026166;28;20212;-72
2021/11/13 01:45:24;;;;;;;38.13;25.27;;;5.20;99.90;;;;;;5026243;28;20219;-72
2021/11/13 01:47:51;;;;;;;45.23;27.67;;;5.30;99.90;;;;;;5026254;28;20216;-72
2021/11/13 01:50:21;;;;;;;37.93;25.63;;;5.20;99.90;;;;;;5026319;28;20216;-72
2021/11/13 01:52:49;;;;;;;37.20;24.93;;;5.20;99.90;;;;;;5025962;28;20281;-72
2021/11/13 01:55:17;;;;;;;36.60;24.37;;;5.30;99.90;;;;;;5026074;28;20205;-72
2021/11/13 01:57:45;;;;;;;39.40;26.07;;;5.20;99.90;;;;;;5026005;28;20296;-71
2021/11/13 02:00:15;;;;;;;37.67;24.57;;;5.20;99.90;;;;;;5025682;28;20275;-72
2021/11/13 02:02:42;;;;;;;35.20;24.10;;;5.20;99.90;;;;;;5025743;28;20229;-71
2021/11/13 02:05:09;;;;;;;40.13;24.53;;;5.30;99.90;;;;;;5026063;28;20269;-72
2021/11/13 02:07:37;;;;;;;38.30;25.20;;;5.30;99.90;;;;;;5024816;28;20208;-72
2021/11/13 02:10:05;;;;;;;35.70;24.80;;;5.20;99.90;;;;;;5024675;28;20212;-71
2021/11/13 02:12:32;;;;;;;38.47;24.33;;;5.20;99.90;;;;;;5024310;28;20684;-72
2021/11/13 02:14:59;;;;;;;39.33;24.87;;;5.20;99.90;;;;;;5011764;28;20249;-72
2021/11/13 02:17:26;;;;;;;40.87;25.43;;;5.30;99.90;;;;;;5004670;28;20223;-71
2021/11/13 02:19:54;;;;;;;39.23;26.17;;;5.20;99.90;;;;;;5004755;28;20860;-72
2021/11/13 02:22:22;;;;;;;37.87;24.43;;;5.20;99.90;;;;;;5006242;28;20205;-72
2021/11/13 02:24:49;;;;;;;37.90;24.67;;;5.30;99.90;;;;;;5004788;28;20741;-72
2021/11/13 02:27:16;;;;;;;36.47;24.87;;;5.30;99.90;;;;;;5005599;28;20225;-71
2021/11/13 02:29:42;;;;;;;37.03;24.63;;;5.30;99.90;;;;;;5005731;28;20222;-72
2021/11/13 02:32:09;;;;;;;36.27;24.77;;;5.30;99.90;;;;;;5005831;28;20278;-71
2021/11/13 02:34:36;;;;;;;36.60;24.70;;;5.30;99.90;;;;;;5005847;28;20209;-71
2021/11/13 02:37:04;;;;;;;37.43;24.50;;;5.20;99.90;;;;;;5006133;28;20210;-71
2021/11/13 02:39:31;;;;;;;37.90;24.47;;;5.20;99.90;;;;;;5005527;28;20228;-71
2021/11/13 02:41:58;;;;;;;37.67;24.90;;;5.30;99.90;;;;;;5004502;28;20743;-72
2021/11/13 02:44:26;;;;;;;36.70;24.93;;;5.20;99.90;;;;;;5005576;28;20212;-71
2021/11/13 02:46:53;;;;;;;37.13;24.93;;;5.20;99.90;;;;;;5005488;28;20219;-71
2021/11/13 02:49:20;;;;;;;36.67;24.30;;;5.20;99.90;;;;;;5006074;28;20299;-72
2021/11/13 02:51:48;;;;;;;36.53;24.83;;;5.20;99.90;;;;;;5005242;28;20233;-72
2021/11/13 02:54:16;;;;;;;37.07;24.90;;;5.20;99.90;;;;;;5005538;28;20215;-72
2021/11/13 02:56:43;;;;;;;35.37;23.57;;;5.20;99.90;;;;;;5005465;28;20206;-72
2021/11/13 02:59:10;;;;;;;38.20;24.40;;;5.20;99.90;;;;;;5005575;28;20214;-72
2021/11/13 03:01:37;;;;;;;39.40;24.83;;;5.20;99.90;;;;;;5005032;28;20309;-72
2021/11/13 03:04:04;;;;;;;34.73;22.60;;;5.20;99.90;;;;;;5005483;28;20216;-72
2021/11/13 03:06:31;;;;;;;37.87;24.43;;;5.20;99.90;;;;;;5005472;28;20287;-72
2021/11/13 03:08:57;;;;;;;36.37;24.07;;;5.20;99.90;;;;;;5005016;28;20676;-72
2021/11/13 03:11:25;;;;;;;37.30;23.27;;;5.20;99.90;;;;;;5005426;28;20229;-72
2021/11/13 03:13:54;;;;;;;36.40;24.57;;;5.10;99.90;;;;;;5005190;28;20206;-72
2021/11/13 03:16:22;;;;;;;38.27;23.90;;;5.10;99.90;;;;;;5005427;28;20306;-72
2021/11/13 03:18:49;;;;;;;37.73;23.27;;;5.10;99.90;;;;;;5005288;28;20555;-71
2021/11/13 03:21:16;;;;;;;36.17;23.17;;;5.10;99.90;;;;;;5005262;28;20665;-72
2021/11/13 03:23:44;;;;;;;37.70;22.97;;;5.10;99.90;;;;;;5005356;28;20213;-72
2021/11/13 03:26:14;;;;;;;33.83;22.90;;;5.10;99.90;;;;;;5005185;28;20213;-73
2021/11/13 03:28:46;;;;;;;33.70;23.03;;;5.10;99.90;;;;;;5005500;28;20724;-73
2021/11/13 03:31:13;;;;;;;37.33;23.97;;;5.10;99.90;;;;;;5005207;28;20282;-73
2021/11/13 03:33:43;;;;;;;36.57;24.03;;;5.10;99.90;;;;;;5004477;28;20604;-73
2021/11/13 03:36:11;;;;;;;37.57;23.53;;;5.10;99.90;;;;;;5007680;28;20210;-71
2021/11/13 03:38:39;;;;;;;36.93;23.80;;;5.10;99.90;;;;;;5008145;28;20226;-71
2021/11/13 03:41:07;;;;;;;34.20;23.13;;;5.10;99.90;;;;;;5008320;28;20571;-72
2021/11/13 03:43:34;;;;;;;36.53;21.20;;;5.10;99.90;;;;;;5008332;28;20582;-71
2021/11/13 03:46:03;;;;;;;32.57;22.23;;;5.10;99.90;;;;;;5007967;28;20229;-73
2021/11/13 03:48:30;;;;;;;33.40;21.53;;;5.10;99.90;;;;;;5008109;28;20217;-73
2021/11/13 03:50:57;;;;;;;35.33;24.50;;;5.10;99.90;;;;;;5008065;28;20246;-73
2021/11/13 03:53:24;;;;;;;33.10;23.20;;;5.10;99.90;;;;;;5007736;28;20679;-72
2021/11/13 03:55:50;;;;;;;35.73;22.37;;;5.10;99.90;;;;;;5007998;28;20568;-71
2021/11/13 03:58:17;;;;;;;32.73;22.37;;;5.10;99.90;;;;;;5008074;28;20252;-72
2021/11/13 04:00:44;;;;;;;32.50;22.40;;;5.10;99.90;;;;;;5007627;28;20289;-72
2021/11/13 04:03:12;;;;;;;32.60;21.70;;;5.10;99.90;;;;;;5008242;28;20217;-72
2021/11/13 04:05:39;;;;;;;30.93;21.20;;;5.10;99.90;;;;;;5007948;28;20214;-72
2021/11/13 04:08:06;;;;;;;35.80;22.63;;;5.10;99.90;;;;;;5007717;28;20281;-72
2021/11/13 04:10:33;;;;;;;33.00;22.23;;;5.10;99.90;;;;;;5007971;28;20349;-72
2021/11/13 04:13:00;;;;;;;32.37;21.07;;;5.10;99.90;;;;;;5007829;28;20269;-72
2021/11/13 04:15:27;;;;;;;31.37;20.50;;;5.00;99.90;;;;;;5007699;28;20210;-72
2021/11/13 04:17:54;;;;;;;32.60;22.00;;;5.00;99.90;;;;;;5007907;28;20255;-72
2021/11/13 04:20:22;;;;;;;31.93;22.00;;;5.00;99.90;;;;;;5008041;28;20289;-72
2021/11/13 04:22:50;;;;;;;29.90;20.47;;;5.00;99.90;;;;;;5007700;28;20216;-72
2021/11/13 04:25:17;;;;;;;30.43;21.27;;;5.00;99.90;;;;;;5007857;28;20213;-73
2021/11/13 04:27:44;;;;;;;32.87;21.90;;;5.00;99.90;;;;;;5007509;28;20265;-73
2021/11/13 04:30:13;;;;;;;31.47;21.33;;;5.00;99.90;;;;;;5007911;28;20204;-73
2021/11/13 04:32:40;;;;;;;31.00;20.87;;;5.00;99.90;;;;;;5007046;28;20719;-73
2021/11/13 04:35:17;;;;;;;30.97;20.27;;;5.00;99.90;;;;;;5007497;28;20477;-73
2021/11/13 04:37:48;;;;;;;29.97;20.07;;;5.10;99.90;;;;;;5007153;28;20212;-73
2021/11/13 04:40:15;;;;;;;31.43;20.57;;;5.00;99.90;;;;;;5007578;28;20201;-73
2021/11/13 04:42:42;;;;;;;29.13;20.47;;;5.00;99.90;;;;;;5007040;28;20695;-72
2021/11/13 04:45:10;;;;;;;35.03;20.60;;;5.00;99.90;;;;;;5007262;28;20260;-73
2021/11/13 04:47:37;;;;;;;31.10;21.00;;;5.00;99.90;;;;;;5006506;28;20623;-72
2021/11/13 04:50:05;;;;;;;30.67;20.60;;;5.00;99.90;;;;;;5007460;28;20258;-73
2021/11/13 04:52:31;;;;;;;30.73;20.77;;;5.00;99.90;;;;;;5007182;28;20229;-72
2021/11/13 04:54:59;;;;;;;36.17;21.10;;;5.10;99.90;;;;;;5007261;28;20206;-72
2021/11/13 04:57:26;;;;;;;29.20;19.97;;;5.10;99.90;;;;;;5007200;28;20201;-72
2021/11/13 04:59:53;;;;;;;30.07;19.70;;;5.10;99.90;;;;;;5006650;28;20677;-72
2021/11/13 05:02:19;;;;;;;30.03;20.70;;;5.10;99.90;;;;;;5007263;28;20198;-74
2021/11/13 05:04:46;;;;;;;27.43;19.17;;;5.10;99.90;;;;;;5006749;28;20228;-74
2021/11/13 05:07:13;;;;;;;30.57;20.07;;;5.10;99.90;;;;;;5006945;28;20730;-74
2021/11/13 05:09:40;;;;;;;29.70;19.80;;;5.20;99.90;;;;;;5006890;28;20225;-74
2021/11/13 05:12:09;;;;;;;28.93;20.30;;;5.20;99.90;;;;;;5007003;28;20222;-74
2021/11/13 05:14:36;;;;;;;33.37;19.93;;;5.20;99.90;;;;;;5006488;28;20663;-74
2021/11/13 05:17:05;;;;;;;29.27;19.67;;;5.20;99.90;;;;;;5006977;28;20259;-74
2021/11/13 05:19:31;;;;;;;27.13;20.37;;;5.20;99.90;;;;;;5006947;28;20213;-72
2021/11/13 05:21:58;;;;;;;29.30;19.37;;;5.20;99.90;;;;;;5006758;28;20213;-72
2021/11/13 05:24:25;;;;;;;27.43;18.30;;;5.20;99.90;;;;;;5006760;28;20726;-73
2021/11/13 05:26:51;;;;;;;30.07;19.80;;;5.20;99.90;;;;;;5006671;28;20256;-73
2021/11/13 05:29:19;;;;;;;27.93;19.60;;;5.20;99.90;;;;;;5006396;28;20233;-73
2021/11/13 05:31:46;;;;;;;27.10;18.93;;;5.20;99.90;;;;;;5006426;28;20259;-72
2021/11/13 05:34:13;;;;;;;32.53;20.87;;;5.10;99.90;;;;;;5006632;28;20209;-72
2021/11/13 05:36:40;;;;;;;31.70;20.67;;;5.10;99.90;;;;;;5006694;28;20206;-72
2021/11/13 05:39:07;;;;;;;28.67;18.47;;;5.10;99.90;;;;;;5006263;28;20209;-72
2021/11/13 05:41:34;;;;;;;31.00;20.00;;;5.10;99.90;;;;;;5006144;28;20607;-72
2021/11/13 05:44:00;;;;;;;27.33;20.10;;;5.20;99.90;;;;;;5006368;28;20236;-72
2021/11/13 05:46:28;;;;;;;28.97;18.90;;;5.20;99.90;;;;;;5006296;28;20240;-72
2021/11/13 05:48:55;;;;;;;28.63;20.17;;;5.10;99.90;;;;;;5006397;28;20240;-72
2021/11/13 05:51:22;;;;;;;28.83;19.37;;;5.20;99.90;;;;;;5006771;28;20267;-72
2021/11/13 05:53:48;;;;;;;26.93;19.37;;;5.20;99.90;;;;;;5006279;28;20265;-72
2021/11/13 05:56:15;;;;;;;26.73;18.97;;;5.20;99.90;;;;;;5006290;28;20305;-72
2021/11/13 05:58:41;;;;;;;28.00;19.63;;;5.20;99.90;;;;;;5004926;28;20952;-72
2021/11/13 06:01:08;;;;;;;28.07;19.13;;;5.10;99.90;;;;;;5005755;28;20276;-72
2021/11/13 06:03:36;;;;;;;27.93;19.47;;;5.10;99.90;;;;;;5006220;28;20244;-73
2021/11/13 06:06:03;;;;;;;28.97;20.33;;;5.10;99.90;;;;;;5005969;28;20238;-73
2021/11/13 06:08:29;;;;;;;25.63;19.23;;;5.10;99.90;;;;;;5006131;28;20262;-71
2021/11/13 06:10:56;;;;;;;27.57;19.10;;;5.20;99.90;;;;;;5005960;28;20236;-72
2021/11/13 06:13:22;;;;;;;28.00;19.20;;;5.20;99.90;;;;;;5006021;28;20265;-72
2021/11/13 06:15:49;;;;;;;24.80;18.43;;;5.20;99.90;;;;;;5006054;28;20302;-72
2021/11/13 06:18:16;;;;;;;25.33;18.40;;;5.20;99.90;;;;;;5005933;28;20206;-72
2021/11/13 06:20:44;;;;;;;27.70;18.67;;;5.20;99.90;;;;;;5005823;28;20625;-72
2021/11/13 06:23:11;;;;;;;28.90;18.83;;;5.20;99.90;;;;;;5005864;28;20201;-72
2021/11/13 06:25:38;;;;;;;28.27;19.10;;;5.20;99.90;;;;;;5005497;28;20239;-72
2021/11/13 06:28:05;;;;;;;24.13;17.77;;;5.20;99.90;;;;;;5005352;28;20272;-72
2021/11/13 06:30:31;;;;;;;28.53;18.77;;;5.20;99.90;;;;;;5005003;28;20213;-72
2021/11/13 06:32:58;;;;;;;29.20;19.80;;;5.20;99.90;;;;;;5005394;28;20710;-70
2021/11/13 06:35:25;;;;;;;30.87;19.27;;;5.10;99.90;;;;;;5005717;28;20237;-70
2021/11/13 06:37:52;;;;;;;25.90;19.10;;;5.10;99.90;;;;;;5011433;28;20659;-70
2021/11/13 06:40:19;;;;;;;27.00;18.60;;;5.10;99.90;;;;;;5021336;28;20247;-70
2021/11/13 06:42:46;;;;;;;28.10;19.13;;;5.10;99.90;;;;;;5021880;28;20268;-70
2021/11/13 06:45:13;;;;;;;26.27;18.13;;;5.20;99.90;;;;;;5021314;28;20278;-70
2021/11/13 06:47:41;;;;;;;26.83;18.53;;;5.10;99.90;;;;;;5021704;28;20244;-70
2021/11/13 06:50:10;;;;;;;26.50;18.13;;;5.10;99.90;;;;;;5021456;28;20251;-70
2021/11/13 06:52:38;;;;;;;25.53;18.37;;;5.20;99.90;;;;;;5021307;28;20236;-70
2021/11/13 06:55:08;;;;;;;26.53;18.53;;;5.20;99.90;;;;;;5021370;28;20215;-71
2021/11/13 06:57:34;;;;;;;27.33;18.27;;;5.20;99.90;;;;;;5021457;28;20619;-71
2021/11/13 07:00:01;;;;;;;25.90;19.97;;;5.20;99.90;;;;;;5021085;28;20266;-70
2021/11/13 07:02:28;;;;;;;26.83;17.73;;;5.20;99.90;;;;;;5020923;28;20694;-71
2021/11/13 07:04:59;;;;;;;26.57;18.30;;;5.20;99.90;;;;;;5020504;28;20236;-70
2021/11/13 07:07:25;;;;;;;26.03;17.37;;;5.20;99.90;;;;;;5021150;28;20300;-70
2021/11/13 07:09:52;;;;;;;27.10;18.67;;;5.20;99.90;;;;;;5021691;28;20224;-70
2021/11/13 07:12:20;;;;;;;24.90;17.03;;;5.20;99.90;;;;;;5024467;28;20216;-71
2021/11/13 07:14:46;;;;;;;28.73;19.07;;;5.30;99.90;;;;;;5024411;28;20632;-71
2021/11/13 07:17:13;;;;;;;24.40;16.33;;;5.30;99.90;;;;;;5024938;28;20276;-71
2021/11/13 07:19:41;;;;;;;22.13;15.93;;;5.30;99.90;;;;;;5024676;28;20242;-70
2021/11/13 07:22:07;;;;;;;22.27;16.20;;;5.30;99.90;;;;;;5024478;28;20220;-71
2021/11/13 07:24:34;;;;;;;25.87;17.10;;;5.30;99.90;;;;;;5024794;28;20692;-71
2021/11/13 07:27:00;;;;;;;22.00;15.90;;;5.30;99.90;;;;;;5024231;28;20232;-71
2021/11/13 07:29:29;;;;;;;25.87;17.30;;;5.30;99.90;;;;;;5024383;28;20250;-71
2021/11/13 07:31:56;;;;;;;24.17;16.63;;;5.30;99.90;;;;;;5024104;28;20331;-71
2021/11/13 07:34:23;;;;;;;22.37;16.23;;;5.20;99.90;;;;;;5024140;28;20268;-71
2021/11/13 07:36:50;;;;;;;21.97;16.13;;;5.30;99.90;;;;;;5022987;28;20321;-71
2021/11/13 07:39:17;;;;;;;23.87;16.77;;;5.30;99.90;;;;;;5015518;28;20624;-71
2021/11/13 07:41:43;;;;;;;21.87;16.30;;;5.30;99.90;;;;;;5007735;28;20304;-71
2021/11/13 07:44:10;;;;;;;25.27;17.07;;;5.30;99.90;;;;;;5008112;28;20239;-71
2021/11/13 07:46:38;;;;;;;23.93;17.23;;;5.40;99.90;;;;;;5007686;28;20205;-71
2021/11/13 07:49:04;;;;;;;20.80;16.30;;;5.30;99.90;;;;;;5007880;28;20224;-71
2021/11/13 07:51:32;;;;;;;22.40;16.60;;;5.30;99.90;;;;;;5008034;28;20205;-71
2021/11/13 07:53:59;;;;;;;24.63;16.80;;;5.40;99.90;;;;;;5007782;28;20289;-71
2021/11/13 07:56:26;;;;;;;22.07;15.77;;;5.40;99.90;;;;;;5008005;28;20202;-71
2021/11/13 07:58:52;;;;;;;21.50;15.70;;;5.40;99.90;;;;;;5008194;28;20259;-71
2021/11/13 08:01:19;;;;;;;22.17;15.47;;;5.50;99.90;;;;;;5007440;28;20237;-71
2021/11/13 08:03:47;;;;;;;25.80;15.90;;;5.50;99.90;;;;;;5007850;28;20262;-71
2021/11/13 08:06:14;;;;;;;21.90;15.77;;;5.50;99.90;;;;;;5007994;28;20776;-72
2021/11/13 08:08:41;;;;;;;22.77;15.80;;;5.50;99.90;;;;;;5007981;28;20279;-70
2021/11/13 08:11:08;;;;;;;22.40;15.80;;;5.50;99.90;;;;;;5007687;28;20249;-70
2021/11/13 08:13:36;;;;;;;22.57;16.20;;;5.50;99.90;;;;;;5007309;28;20721;-70
2021/11/13 08:16:03;;;;;;;22.17;14.80;;;5.50;99.90;;;;;;5007518;28;20214;-70
2021/11/13 08:18:30;;;;;;;20.60;15.03;;;5.50;99.90;;;;;;5007731;28;20202;-70
2021/11/13 08:20:59;;;;;;;20.33;14.60;;;5.50;99.90;;;;;;5006885;28;20293;-71
2021/11/13 08:23:26;;;;;;;19.67;14.77;;;5.50;99.90;;;;;;5006586;28;20299;-71
2021/11/13 08:25:53;;;;;;;20.57;15.03;;;5.50;99.90;;;;;;5007493;28;20202;-71
2021/11/13 08:28:20;;;;;;;20.33;14.50;;;5.50;99.90;;;;;;5007378;28;20261;-71
2021/11/13 08:30:47;;;;;;;22.07;15.80;;;5.50;99.90;;;;;;5007147;28;20224;-71
2021/11/13 08:33:15;;;;;;;20.63;15.13;;;5.50;99.90;;;;;;5007343;28;20287;-71
2021/11/13 08:35:44;;;;;;;20.60;15.17;;;5.60;99.90;;;;;;5006981;28;20811;-71
2021/11/13 08:38:13;;;;;;;19.97;14.93;;;5.60;99.90;;;;;;5007302;28;20547;-71
2021/11/13 08:40:40;;;;;;;20.43;14.67;;;5.60;99.90;;;;;;5007263;28;20205;-71
2021/11/13 08:43:06;;;;;;;17.57;13.53;;;5.60;99.90;;;;;;5007398;28;20217;-70
2021/11/13 08:45:34;;;;;;;22.13;14.63;;;5.60;99.90;;;;;;5007131;28;20266;-71
2021/11/13 08:48:00;;;;;;;22.97;14.47;;;5.70;99.90;;;;;;5007159;28;20214;-71
2021/11/13 08:50:30;;;;;;;16.73;12.80;;;5.70;99.90;;;;;;5007042;28;20241;-71
2021/11/13 08:52:59;;;;;;;16.07;12.87;;;5.80;99.90;;;;;;5006991;28;20225;-71
2021/11/13 08:55:29;;;;;;;18.47;14.00;;;5.80;99.90;;;;;;5006948;28;20240;-71
2021/11/13 08:57:58;;;;;;;16.33;12.97;;;5.80;99.90;;;;;;5006679;28;20255;-71
2021/11/13 09:00:29;;;;;;;18.50;12.83;;;5.80;99.90;;;;;;5006579;28;20272;-71
2021/11/13 09:02:58;;;;;;;18.07;13.77;;;5.90;99.90;;;;;;5006752;28;20651;-70
2021/11/13 09:05:25;;;;;;;16.40;12.30;;;5.90;99.90;;;;;;5006698;28;20225;-71
2021/11/13 09:07:54;;;;;;;15.43;12.30;;;5.90;99.90;;;;;;5006486;28;20241;-71
2021/11/13 09:10:21;;;;;;;17.23;13.30;;;5.90;99.90;;;;;;5006752;28;20209;-71
2021/11/13 09:12:50;;;;;;;15.60;12.70;;;6.00;99.90;;;;;;5006708;28;20210;-71
2021/11/13 09:15:22;;;;;;;16.67;12.70;;;6.00;99.90;;;;;;5006648;28;20566;-70
2021/11/13 09:17:50;;;;;;;17.03;12.43;;;6.00;99.90;;;;;;5006143;28;20736;-70
2021/11/13 09:20:16;;;;;;;15.47;12.27;;;6.00;99.90;;;;;;5006706;28;20209;-70
2021/11/13 09:22:43;;;;;;;17.63;12.97;;;6.10;99.90;;;;;;5006681;28;20239;-70
2021/11/13 09:25:10;;;;;;;16.47;13.00;;;6.10;99.90;;;;;;5006696;28;20254;-70
2021/11/13 09:27:37;;;;;;;14.57;12.33;;;6.10;99.90;;;;;;5006354;28;20235;-70
2021/11/13 09:30:11;;;;;;;14.07;12.10;;;6.20;99.90;;;;;;5006506;28;20212;-70
2021/11/13 09:32:38;;;;;;;15.83;12.50;;;6.20;99.90;;;;;;5006387;28;20246;-70
2021/11/13 09:35:05;;;;;;;14.20;11.93;;;6.30;99.90;;;;;;5006243;28;20325;-70
2021/11/13 09:37:33;;;;;;;14.93;11.33;;;6.40;99.90;;;;;;5006410;28;20259;-70
2021/11/13 09:40:00;;;;;;;14.77;11.77;;;6.40;99.90;;;;;;5018943;28;20274;-70
2021/11/13 09:42:27;;;;;;;13.60;10.93;;;6.60;99.90;;;;;;5025140;28;20671;-71
2021/11/13 09:44:54;;;;;;;12.90;11.50;;;6.70;99.90;;;;;;5025590;28;20268;-70
2021/11/13 09:47:22;;;;;;;13.77;10.90;;;6.80;99.90;;;;;;5025959;28;20205;-70
2021/11/13 09:49:49;;;;;;;12.70;11.33;;;6.80;99.90;;;;;;5025740;28;20205;-70
2021/11/13 09:52:16;;;;;;;14.23;11.97;;;6.80;99.90;;;;;;5025337;28;20964;-70
2021/11/13 09:54:44;;;;;;;12.57;11.13;;;6.90;99.90;;;;;;5025688;28;20244;-70
2021/11/13 09:57:12;;;;;;;12.47;11.17;;;6.90;99.90;;;;;;5025726;28;20254;-70
2021/11/13 09:59:42;;;;;;;13.77;11.63;;;6.90;99.90;;;;;;5024999;28;20233;-70
2021/11/13 10:02:09;;;;;;;12.43;11.07;;;6.90;99.90;;;;;;5025143;28;20237;-70
2021/11/13 10:04:38;;;;;;;13.30;11.23;;;6.90;99.90;;;;;;5025761;28;20209;-70
2021/11/13 10:07:09;;;;;;;12.30;11.00;;;7.00;99.90;;;;;;5025471;28;20236;-70
2021/11/13 10:09:36;;;;;;;12.33;11.03;;;7.00;99.90;;;;;;5025597;28;20229;-70
2021/11/13 10:12:03;;;;;;;14.70;11.40;;;7.10;99.90;;;;;;5025751;28;20205;-70
2021/11/13 10:14:35;;;;;;;11.87;10.50;;;7.20;99.90;;;;;;5025380;28;20266;-70
2021/11/13 10:17:02;;;;;;;12.03;10.60;;;7.30;99.90;;;;;;5025828;28;20257;-70
2021/11/13 10:19:29;;;;;;;12.80;11.07;;;7.40;99.90;;;;;;5025647;28;20205;-70
2021/11/13 10:21:58;;;;;;;12.37;10.07;;;7.50;99.90;;;;;;5025433;28;20237;-70
2021/11/13 10:24:28;;;;;;;12.77;10.27;;;7.50;99.90;;;;;;5025845;28;20209;-70
2021/11/13 10:26:57;;;;;;;11.77;10.57;;;7.60;99.90;;;;;;5025519;28;20290;-70
2021/11/13 10:29:26;;;;;;;12.53;10.00;;;7.70;99.90;;;;;;5025705;28;20239;-70
2021/11/13 10:31:54;;;;;;;10.93;9.77;;;7.80;99.90;;;;;;5025222;28;20257;-70
2021/11/13 10:34:23;;;;;;;11.23;9.47;;;7.70;99.90;;;;;;5025353;28;20225;-71
2021/11/13 10:37:17;;;;;;;11.60;10.10;;;7.70;99.90;;;;;;5025280;28;20258;-71
2021/11/13 10:39:45;;;;;;;10.83;9.73;;;7.60;99.90;;;;;;5024834;28;20732;-70
2021/11/13 10:42:13;;;;;;;10.40;9.33;;;7.60;99.90;;;;;;5025528;28;20209;-71
2021/11/13 10:44:45;;;;;;;11.23;9.50;;;7.60;99.90;;;;;;5025353;28;20229;-71
2021/11/13 10:47:13;;;;;;;12.13;10.53;;;7.60;99.90;;;;;;5029074;28;20715;-71
2021/11/13 10:49:40;;;;;;;11.20;9.90;;;7.60;99.90;;;;;;5028754;28;21049;-71
2021/11/13 10:52:08;;;;;;;12.23;10.23;;;7.60;99.90;;;;;;5028634;28;20251;-71
2021/11/13 10:54:38;;;;;;;11.53;10.07;;;7.60;99.90;;;;;;5028515;28;20243;-71
2021/11/13 10:57:07;;;;;;;11.70;10.30;;;7.60;99.90;;;;;;5028737;28;20240;-71
2021/11/13 10:59:36;;;;;;;11.80;10.37;;;7.70;99.90;;;;;;5028627;28;20284;-71
2021/11/13 11:02:06;;;;;;;13.80;11.70;;;7.70;99.90;;;;;;5028297;28;20316;-71
2021/11/13 11:04:35;;;;;;;12.43;11.00;;;7.80;99.90;;;;;;5028325;28;20706;-71
2021/11/13 11:07:05;;;;;;;14.53;11.30;;;7.80;99.90;;;;;;5028519;28;20256;-71
2021/11/13 11:09:34;;;;;;;13.40;10.93;;;7.90;99.90;;;;;;5028351;28;20721;-71
2021/11/13 11:12:06;;;;;;;13.00;10.43;;;7.90;99.90;;;;;;5028376;28;20289;-71
2021/11/13 11:14:33;;;;;;;13.00;10.70;;;7.90;99.90;;;;;;5028555;28;20229;-71
2021/11/13 11:17:02;;;;;;;12.40;10.57;;;7.90;99.90;;;;;;5028364;28;20285;-70
2021/11/13 11:19:31;;;;;;;12.73;11.07;;;7.90;99.90;;;;;;5028421;28;20209;-71
2021/11/13 11:22:00;;;;;;;11.63;10.33;;;7.90;99.90;;;;;;5028309;28;20251;-71
2021/11/13 11:24:32;;;;;;;13.13;10.50;;;7.90;99.90;;;;;;5028194;28;20258;-71
2021/11/13 11:27:07;;;;;;;13.47;10.90;;;7.90;99.90;;;;;;5028049;28;20225;-71
2021/11/13 11:29:36;;;;;;;12.77;10.67;;;7.90;99.90;;;;;;5028317;28;20201;-70
2021/11/13 11:32:06;;;;;;;12.03;10.73;;;7.90;99.90;;;;;;5028178;28;20418;-71
2021/11/13 11:34:36;;;;;;;13.33;10.60;;;7.90;99.90;;;;;;5027796;28;20216;-71
2021/11/13 11:37:12;;;;;;;11.90;10.53;;;7.90;99.90;;;;;;5027901;28;20735;-71
2021/11/13 11:39:40;;;;;;;13.27;10.43;;;8.00;99.90;;;;;;5028184;28;20196;-71
2021/11/13 11:42:09;;;;;;;11.67;10.47;;;8.00;99.90;;;;;;5028343;28;20208;-71
2021/11/13 11:44:38;;;;;;;13.03;11.30;;;8.00;99.90;;;;;;5027633;28;20228;-71
2021/11/13 11:47:09;;;;;;;11.60;10.40;;;8.00;99.90;;;;;;5027793;28;20208;-71
2021/11/13 11:49:38;;;;;;;12.70;11.27;;;8.00;99.90;;;;;;5028135;28;20241;-71
2021/11/13 11:52:05;;;;;;;12.20;10.40;;;8.10;99.90;;;;;;5027983;28;20230;-70
2021/11/13 11:54:33;;;;;;;13.37;10.70;;;8.20;99.90;;;;;;5027420;28;20225;-71
2021/11/13 11:56:59;;;;;;;12.47;10.10;;;8.20;99.90;;;;;;5027321;28;20743;-71
2021/11/13 11:59:29;;;;;;;14.80;10.40;;;8.30;99.90;;;;;;5027722;28;20275;-71
2021/11/13 12:02:06;;;;;;;12.53;10.40;;;8.40;99.90;;;;;;5027222;28;20240;-70
2021/11/13 12:04:33;;;;;;;13.17;10.73;;;8.50;99.90;;;;;;5027307;28;20635;-70
2021/11/13 12:07:00;;;;;;;11.23;10.03;;;8.60;99.90;;;;;;5027518;28;20209;-71
2021/11/13 12:09:28;;;;;;;12.17;10.47;;;8.70;99.90;;;;;;5027422;28;20258;-71
2021/11/13 12:12:14;;;;;;;12.20;9.83;;;8.80;99.90;;;;;;5027296;28;20479;-71
2021/11/13 12:14:42;;;;;;;11.33;9.40;;;8.80;99.90;;;;;;5027205;28;20256;-71
2021/11/13 12:17:27;;;;;;;11.33;10.13;;;9.00;99.90;;;;;;5027118;28;20209;-71
2021/11/13 12:20:30;;;;;;;13.50;10.10;;;9.10;99.90;;;;;;5027023;28;20230;-70
2021/11/13 12:23:06;;;;;;;10.30;9.30;;;9.10;99.90;;;;;;5026792;28;20201;-71
2021/11/13 12:25:35;;;;;;;11.53;10.23;;;9.30;99.90;;;;;;5026624;28;20225;-71
2021/11/13 12:28:10;;;;;;;11.27;9.80;;;9.40;99.90;;;;;;5026739;28;20252;-71
2021/11/13 12:30:48;;;;;;;10.70;9.50;;;9.60;99.90;;;;;;5027028;28;20250;-71
2021/11/13 12:33:45;;;;;;;11.03;9.83;;;9.80;99.90;;;;;;5027481;28;20192;-71
2021/11/13 12:36:16;;;;;;;11.20;9.10;;;10.00;99.90;;;;;;5027036;28;20219;-71
2021/11/13 12:38:45;;;;;;;9.97;9.00;;;10.20;99.90;;;;;;5027154;28;20224;-71
2021/11/13 12:41:12;;;;;;;9.97;8.90;;;10.30;99.90;;;;;;5026785;28;20242;-71
2021/11/13 12:44:02;;;;;;;10.33;8.90;;;10.40;99.90;;;;;;5026453;28;20275;-71